Pagrindinis puslapis
METAR-TAF:

METAR-TAF

Oro uostai :

Naftos platforma

Troll A, Norvegija

platuma: 60-38-42N, ilguma: 3-43-29E, Aukštis: 20 m

Dabartinis oras

Ataskaita buvo paskelbta 12 minutes, ne 18:50 UTC
Vėjas 39 kt iš Pietų
Temperatūra 7°C
Drėgmė 81%
Slėgis 993 hPa
Matomumas 10 km arba daugiau

METAR: ENQA 291850Z AUTO 17039KT 9999 BKN014/// BKN160/// 07/04 Q0993 W04/S6

Laikas: 20:02 (19:02 UTC)


TAF: trūkstamas

Orai ataskaitas ir orų prognozės (METAR, TAF).

turimą stotys yra geltonos ir raudonos taškus žemėlapyje.

Perkelti pele per norėdami pamatyti stoties vardą.

Tada spustelėkite, norėdami matyti oro stebėjimo ir prognozės.

Norėdami pakeisti žemėlapį: spustelėkite ant žalios mygtukų su juodo kryžiaus žemyn,; žalią mygtuką su brūkšneliu, jei norite nutolinti; arba žalių rodyklių gretimoms žemėlapius.


METAR-TAF: